Latest Weather Observations for Port Hedland

IDW60801

Issued at 3:32 pm WST Sunday 19 April 2015 (issued every 30 minutes, with the page automatically refreshed every 10 minutes)

About weather observations | Map of weather stations | Latest weather observations for WA | Other Formats
Station Details ID: 004032 Name: PORT HEDLAND AIRPORT Lat: -20.37 Lon: 118.63 Height: 6.4 m
Data from the previous 72 hours. | See also: Recent months at Port Hedland
Date/Time
WST
Temp
°C
App
Temp
°C
Dew
Point
Rel
Hum
%
Delta-T
°C
Wind Press
QNH
hPa
Press
MSL
hPa
Rain
since 9 am
mm
Dir
 
Spd
km/h
Gust
km/h
Spd
kts
Gust
kts
19/03:30pm 21.1 19.6 18.5 85 1.6 SE 24 35 13 19 1015.9 - 1.6
19/03:00pm 20.9 19.2 18.2 84 1.7 SE 24 33 13 18 1015.8 1015.7 1.4
19/02:30pm 20.6 19.9 18.7 89 1.2 SSE 20 28 11 15 1015.9 - 1.4
19/02:00pm 20.1 18.5 18.3 89 1.1 SSE 24 32 13 17 1015.8 - 1.0
19/01:30pm 20.4 18.1 17.5 83 1.8 SE 26 35 14 19 1015.9 - 0.6
19/01:00pm 20.4 17.4 16.9 80 2.1 SSE 28 35 15 19 1016.0 - 0.6
19/12:30pm 20.3 17.7 16.8 80 2.1 SE 26 33 14 18 1016.3 - 0.6
19/12:00pm 20.9 17.7 16.2 74 2.8 SE 28 44 15 24 1016.8 1016.7 0.4
19/11:30am 21.2 18.3 16.0 72 3.1 SE 26 37 14 20 1017.2 - 0.2
19/11:00am 21.8 19.3 16.2 70 3.4 SSE 24 32 13 17 1017.5 - 0.2
19/10:30am 21.4 19.4 16.4 73 3.0 SSE 22 32 12 17 1017.7 - 0.2
19/10:00am 21.0 19.2 16.9 77 2.5 SSE 22 30 12 16 1018.2 - 0.2
19/09:30am 20.6 19.9 17.3 81 2.0 SSE 17 22 9 12 1018.6 - 0.2
19/09:00am 20.8 20.2 16.7 77 2.5 S 15 20 8 11 1018.7 1018.6 1.4
19/08:30am 21.0 21.0 17.2 79 2.3 S 13 17 7 9 1018.2 - 0.8
19/08:00am 21.4 21.3 16.1 72 3.2 S 11 15 6 8 1017.9 - 0.4
19/07:30am 22.7 22.7 15.1 62 4.5 SSE 9 17 5 9 1017.2 - 0.0
19/07:00am 24.1 22.1 11.5 45 7.1 S 13 19 7 10 1015.8 - 0.0
19/06:30am 24.5 22.2 10.4 41 7.8 SE 13 19 7 10 1014.9 - 0.0
19/05:30am 23.8 20.9 10.9 44 7.2 SSE 17 22 9 12 1013.7 - 0.0
19/05:00am 23.6 20.4 11.3 46 6.9 SSE 19 26 10 14 1013.2 - 0.0
19/04:30am 23.9 20.6 11.0 44 7.2 SSE 19 26 10 14 1013.8 - 0.0
19/04:00am 23.9 20.2 10.3 42 7.5 SE 20 28 11 15 1013.4 - 0.0
19/03:30am 23.6 19.6 10.6 44 7.2 SE 22 28 12 15 1013.3 - 0.0
19/03:00am 23.3 19.5 11.3 46 6.7 SE 22 28 12 15 1013.5 1013.4 0.0
19/02:30am 23.3 18.8 11.3 46 6.7 SE 26 35 14 19 1014.0 - 0.0
19/02:00am 23.2 18.3 11.4 47 6.6 SE 28 35 15 19 1014.4 - 0.0
19/01:30am 23.3 19.0 12.0 49 6.4 SE 26 37 14 20 1014.7 - 0.0
19/01:00am 23.4 19.4 13.0 52 6.0 SSE 26 32 14 17 1015.0 - 0.0
19/12:30am 23.7 19.7 12.9 50 6.2 SSE 26 37 14 20 1015.3 - 0.0
19/12:00am 23.8 19.2 13.5 52 6.0 SSE 30 41 16 22 1015.5 1015.4 0.0
 
Date/Time
WST
Temp
°C
App
Temp
°C
Dew
Point
Rel
Hum
%
Delta-T
°C
Wind Press
QNH
hPa
Press
MSL
hPa
Rain
since 9 am
mm
Dir
 
Spd
km/h
Gust
km/h
Spd
kts
Gust
kts
18/11:30pm 23.8 20.7 14.5 56 5.5 SSE 24 30 13 16 1015.7 - 0.0
18/11:00pm 24.5 21.2 13.9 51 6.2 SE 24 37 13 20 1016.1 - 0.0
18/10:30pm 25.0 20.0 13.5 48 6.7 SE 32 43 17 23 1016.0 - 0.0
18/10:00pm 26.2 22.0 13.4 45 7.5 SE 28 39 15 21 1015.7 - 0.0
18/09:30pm 26.6 21.6 13.5 44 7.7 SSE 32 46 17 25 1015.4 - 0.0
18/09:00pm 26.9 22.7 13.5 43 7.9 SSE 28 39 15 21 1015.5 1015.4 0.0
18/08:30pm 27.0 24.4 13.8 44 7.8 SSE 20 30 11 16 1015.2 - 0.0
18/08:00pm 26.6 25.5 15.4 50 6.8 SSE 15 19 8 10 1014.9 - 0.0
18/07:30pm 27.4 26.3 14.4 45 7.8 SSE 13 17 7 9 1014.4 - 0.0
18/07:00pm 27.5 25.5 13.9 43 8.1 SSE 17 20 9 11 1013.8 - 0.0
18/06:30pm 28.1 25.2 13.0 39 8.9 SE 20 28 11 15 1013.4 - 0.0
18/06:00pm 28.2 25.0 13.1 39 8.9 SE 22 32 12 17 1013.2 1013.1 0.0
18/05:30pm 28.2 25.4 13.3 40 8.8 SE 20 26 11 14 1013.1 - 0.0
18/05:00pm 28.0 26.3 14.6 44 8.1 SE 17 24 9 13 1012.9 - 0.0
18/04:30pm 27.7 26.2 15.2 46 7.6 ESE 17 22 9 12 1012.7 - 0.0
18/04:00pm 29.5 26.0 12.2 34 10.1 ESE 22 30 12 16 1012.6 - 0.0
18/03:30pm 30.3 27.7 12.0 32 10.7 ESE 17 26 9 14 1012.7 - 0.0
18/03:00pm 30.4 27.1 11.7 31 10.9 ESE 20 28 11 15 1012.5 1012.4 0.0
18/02:30pm 30.7 27.5 11.9 31 11.0 SE 20 28 11 15 1012.3 - 0.0
18/02:00pm 30.6 26.4 11.2 30 11.2 ESE 24 35 13 19 1012.2 - 0.0
18/01:30pm 30.6 25.3 11.2 30 11.2 ESE 30 41 16 22 1012.3 - 0.0
18/01:00pm 29.7 24.3 10.8 31 10.8 ESE 30 39 16 21 1012.7 - 0.0
18/12:30pm 29.0 24.2 11.5 33 10.1 ESE 28 39 15 21 1013.1 - 0.0
18/12:00pm 28.7 24.4 12.0 35 9.7 ESE 26 33 14 18 1013.9 1013.8 0.0
18/11:30am 28.1 24.7 13.6 41 8.6 ESE 24 33 13 18 1014.5 - 0.0
18/11:00am 28.3 24.7 13.0 39 9.0 ESE 24 32 13 17 1014.9 - 0.0
18/10:30am 29.1 24.9 12.3 35 9.8 E 26 32 14 17 1015.3 - 0.0
18/10:00am 29.0 24.7 12.2 35 9.8 E 26 35 14 19 1015.6 - 0.0
18/09:30am 28.8 23.4 12.1 35 9.7 E 32 43 17 23 1015.6 - 0.0
18/09:00am 28.6 23.6 12.3 36 9.5 E 30 44 16 24 1015.4 1015.3 0.0
18/08:30am 28.3 22.9 12.3 37 9.3 E 32 41 17 22 1015.0 - 0.0
18/08:00am 27.7 22.8 12.6 39 8.8 ESE 30 37 16 20 1014.6 - 0.0
18/07:30am 27.0 23.8 13.0 42 8.2 ESE 22 32 12 17 1014.4 - 0.0
18/07:00am 26.5 23.4 13.4 44 7.7 SE 22 28 12 15 1013.6 - 0.0
18/06:30am 26.5 23.4 13.4 44 7.7 SE 22 32 12 17 1013.4 - 0.0
18/06:00am 26.5 23.6 14.0 46 7.4 SE 22 33 12 18 1013.4 1013.3 0.0
18/05:30am 26.3 24.8 15.4 51 6.6 SE 17 24 9 13 1013.6 - 0.0
18/05:00am 26.8 24.6 14.9 48 7.2 SE 20 30 11 16 1013.5 - 0.0
18/04:30am 26.8 24.8 15.5 50 6.9 SE 20 28 11 15 1013.4 - 0.0
18/04:00am 26.8 24.9 15.7 50 6.8 SSE 20 28 11 15 1013.2 - 0.0
18/03:30am 26.7 24.9 15.9 51 6.6 SSE 20 24 11 13 1013.2 - 0.0
18/03:00am 26.5 25.4 16.3 53 6.3 SSE 17 22 9 12 1013.1 1013.0 0.0
18/02:30am 26.6 25.8 16.0 52 6.5 SSE 15 20 8 11 1013.4 - 0.0
18/02:00am 27.0 26.1 15.9 50 6.8 S 15 17 8 9 1014.1 - 0.0
18/01:30am 26.9 26.0 15.8 50 6.8 SSE 15 19 8 10 1014.0 - 0.0
18/01:00am 26.5 25.3 16.1 52 6.4 SSE 17 20 9 11 1013.8 - 0.0
18/12:30am 26.4 25.7 16.5 54 6.1 S 15 20 8 11 1014.0 - 0.0
18/12:00am 26.2 25.6 16.7 56 5.9 SSE 15 19 8 10 1014.0 1013.9 0.0
 
Date/Time
WST
Temp
°C
App
Temp
°C
Dew
Point
Rel
Hum
%
Delta-T
°C
Wind Press
QNH
hPa
Press
MSL
hPa
Rain
since 9 am
mm
Dir
 
Spd
km/h
Gust
km/h
Spd
kts
Gust
kts
17/11:30pm 25.9 25.8 16.9 57 5.6 SSE 13 17 7 9 1014.1 - 0.0
17/11:00pm 26.3 26.1 16.8 56 5.9 SSE 13 17 7 9 1014.4 - 0.0
17/10:30pm 26.9 26.7 16.6 53 6.4 SE 13 19 7 10 1014.6 - 0.0
17/10:00pm 27.0 27.2 16.7 53 6.4 SE 11 15 6 8 1014.8 - 0.0
17/09:30pm 27.1 26.5 16.6 52 6.5 SSE 15 19 8 10 1015.0 - 0.0
17/09:00pm 27.3 26.3 16.5 51 6.7 SSE 17 20 9 11 1014.8 1014.7 0.0
17/08:30pm 27.5 26.9 16.7 51 6.7 SSE 15 19 8 10 1014.6 - 0.0
17/08:00pm 27.8 26.8 16.7 50 6.9 SE 17 24 9 13 1014.5 - 0.0
17/07:30pm 28.3 27.1 17.1 50 7.0 SSE 19 24 10 13 1014.2 - 0.0
17/07:00pm 28.6 28.6 17.3 50 7.1 SE 13 19 7 10 1013.7 - 0.0
17/06:30pm 28.7 28.8 17.5 50 7.1 SE 13 19 7 10 1013.2 - 0.0
17/06:00pm 28.9 28.7 17.5 50 7.2 SE 15 22 8 12 1012.9 1012.8 0.0
17/05:30pm 29.2 28.1 17.3 48 7.5 SE 19 22 10 12 1012.7 - 0.0
17/05:00pm 29.5 28.8 17.3 47 7.7 SE 17 22 9 12 1012.4 - 0.0
17/04:30pm 29.2 28.2 17.5 49 7.4 SE 19 24 10 13 1012.3 - 0.0
17/04:00pm 28.9 27.8 17.7 50 7.1 SE 20 26 11 14 1012.4 - 0.0
17/03:30pm 29.8 28.5 17.3 47 7.9 ESE 20 28 11 15 1012.0 - 0.0
17/03:00pm 30.3 28.5 17.0 44 8.4 ESE 22 30 12 16 1012.1 1012.0 0.0
17/02:30pm 30.5 29.4 17.2 44 8.4 ESE 19 26 10 14 1012.0 - 0.0
17/02:00pm 31.0 28.6 16.3 41 9.2 ESE 24 33 13 18 1012.2 - 0.0
17/01:30pm 31.6 29.5 16.3 39 9.6 ESE 22 30 12 16 1012.5 - 0.0
17/01:00pm 32.0 29.0 15.8 37 10.1 ESE 26 33 14 18 1012.8 - 0.0
17/12:30pm 32.6 29.7 16.2 37 10.3 SE 26 37 14 20 1013.3 - 0.0
17/12:00pm 33.6 30.3 16.1 35 11.0 ESE 28 39 15 21 1013.8 1013.7 0.0
17/11:30am 32.2 28.8 15.9 37 10.2 ESE 28 39 15 21 1014.2 - 0.0
17/11:00am 31.2 28.1 16.6 41 9.2 E 28 32 15 17 1014.7 - 0.0
17/10:30am 29.4 27.2 17.0 47 7.8 SE 24 33 13 18 1015.4 - 0.0
17/10:00am 28.6 26.5 17.1 49 7.2 ESE 24 35 13 19 1015.8 - 0.0
17/09:30am 28.3 26.3 17.5 52 6.8 SE 24 33 13 18 1015.9 - 0.0
17/09:00am 27.9 25.8 18.0 55 6.3 SE 26 35 14 19 1016.1 1016.0 0.0
17/08:30am 28.3 25.7 17.7 52 6.7 SE 28 39 15 21 1016.0 - 0.0
17/08:00am 27.8 26.0 17.8 54 6.3 SE 24 35 13 19 1016.0 - 0.0
17/07:30am 27.8 26.2 19.1 59 5.6 SE 26 33 14 18 1015.7 - 0.0
17/07:00am 27.7 28.7 19.5 61 5.3 SSE 13 15 7 8 1015.2 - 0.0
17/06:30am 27.8 27.6 18.6 57 5.9 SE 17 22 9 12 1015.0 - 0.0
17/06:00am 27.6 28.8 19.9 63 5.0 SSE 13 17 7 9 1014.8 1014.7 0.0
17/05:30am 27.7 30.0 20.7 65 4.6 SSE 9 15 5 8 1014.4 - 0.0
17/05:00am 27.7 28.9 20.7 65 4.6 SSW 15 17 8 9 1014.3 - 0.0
17/04:30am 27.3 30.4 21.4 70 3.9 S 7 9 4 5 1014.4 - 0.0
17/04:00am 27.5 30.9 21.7 70 3.9 SSW 6 9 3 5 1014.3 - 0.0
17/03:30am 27.3 31.9 21.8 72 3.7 CALM 0 0 0 0 1014.2 - 0.0
17/03:00am 27.2 30.5 21.5 71 3.8 E 6 9 3 5 1014.2 1014.1 0.0
17/02:30am 27.3 31.9 21.8 72 3.7 CALM 0 0 0 0 1014.3 - 0.0
17/02:00am 27.9 31.8 21.9 70 4.0 SE 4 7 2 4 1014.3 - 0.0
17/01:30am 27.8 31.4 22.0 70 3.9 S 6 7 3 4 1014.3 - 0.0
17/01:00am 28.1 31.5 22.0 69 4.1 S 7 9 4 5 1014.5 - 0.0
17/12:30am 28.2 31.0 21.5 67 4.5 SSE 9 13 5 7 1014.9 - 0.0
17/12:00am 28.2 31.3 21.5 67 4.5 SSE 7 9 4 5 1014.7 1014.6 0.0
 
Date/Time
WST
Temp
°C
App
Temp
°C
Dew
Point
Rel
Hum
%
Delta-T
°C
Wind Press
QNH
hPa
Press
MSL
hPa
Rain
since 9 am
mm
Dir
 
Spd
km/h
Gust
km/h
Spd
kts
Gust
kts
16/11:30pm 27.9 30.7 21.5 68 4.3 SW 9 11 5 6 1014.7 - 0.0
16/11:00pm 27.9 31.4 21.9 70 4.0 W 6 9 3 5 1014.7 - 0.0
16/10:30pm 27.7 31.8 23.2 76 3.1 NW 7 11 4 6 1014.7 - 0.0
16/10:00pm 28.1 33.2 23.4 75 3.2 NW 2 6 1 3 1014.8 - 0.0
16/09:30pm 28.1 31.7 23.0 74 3.5 NW 9 9 5 5 1015.1 - 0.0
16/09:00pm 28.4 31.8 22.7 71 3.9 WNW 9 11 5 6 1015.4 1015.3 0.0
16/08:30pm 28.3 31.0 22.1 69 4.2 WNW 11 13 6 7 1015.5 - 0.0
16/08:00pm 28.4 31.5 22.2 69 4.2 NW 9 11 5 6 1015.3 - 0.0
16/07:30pm 28.7 31.7 22.0 67 4.5 WNW 9 11 5 6 1014.9 - 0.0
16/07:00pm 28.8 31.4 22.0 66 4.6 WNW 11 15 6 8 1014.5 - 0.0
16/06:30pm 29.0 31.6 21.9 65 4.8 NW 11 15 6 8 1014.0 - 0.0
16/06:00pm 29.5 30.8 20.8 59 5.8 NW 15 17 8 9 1013.7 1013.6 0.0
16/05:30pm 30.0 30.6 19.4 53 6.9 NW 15 19 8 10 1013.5 - 0.0
16/05:00pm 30.7 31.4 19.7 52 7.2 NW 15 19 8 10 1013.2 - 0.0
16/04:30pm 31.1 30.6 19.0 48 7.9 NW 20 24 11 13 1013.1 - 0.0
16/04:00pm 32.0 31.4 18.4 44 8.8 NW 19 22 10 12 1013.0 - 0.0

Other Formats:

Comma delimited format used in spreadsheet applications
http://www.bom.gov.au/fwo/IDW60801/IDW60801.94312.axf

JavaScript Object Notation format (JSON) in row-major order
http://www.bom.gov.au/fwo/IDW60801/IDW60801.94312.json